sensor_id;sensor_type;location;lat;lon;timestamp;P1;durP1;ratioP1;P2;durP2;ratioP2
36663;SDS011;53333;51.976;20.144;2023-03-29T00:02:08;17.50;;;7.35;;
36663;SDS011;53333;51.976;20.144;2023-03-29T00:04:41;22.73;;;7.93;;
36663;SDS011;53333;51.976;20.144;2023-03-29T00:07:15;16.75;;;7.22;;
36663;SDS011;53333;51.976;20.144;2023-03-29T00:09:48;22.80;;;8.88;;
36663;SDS011;53333;51.976;20.144;2023-03-29T00:12:21;14.97;;;7.63;;
36663;SDS011;53333;51.976;20.144;2023-03-29T00:14:56;20.33;;;8.17;;
36663;SDS011;53333;51.976;20.144;2023-03-29T00:17:29;15.05;;;7.57;;
36663;SDS011;53333;51.976;20.144;2023-03-29T00:20:02;13.30;;;6.88;;
36663;SDS011;53333;51.976;20.144;2023-03-29T00:22:39;15.38;;;7.55;;
36663;SDS011;53333;51.976;20.144;2023-03-29T00:25:13;14.00;;;6.70;;
36663;SDS011;53333;51.976;20.144;2023-03-29T00:27:46;14.45;;;7.80;;
36663;SDS011;53333;51.976;20.144;2023-03-29T00:30:21;19.73;;;7.23;;
36663;SDS011;53333;51.976;20.144;2023-03-29T00:32:54;13.65;;;6.53;;
36663;SDS011;53333;51.976;20.144;2023-03-29T00:35:32;13.18;;;5.80;;
36663;SDS011;53333;51.976;20.144;2023-03-29T00:38:05;19.13;;;7.65;;
36663;SDS011;53333;51.976;20.144;2023-03-29T00:40:40;15.27;;;6.53;;
36663;SDS011;53333;51.976;20.144;2023-03-29T00:43:14;13.73;;;6.13;;
36663;SDS011;53333;51.976;20.144;2023-03-29T00:45:49;19.25;;;7.38;;
36663;SDS011;53333;51.976;20.144;2023-03-29T00:48:23;11.00;;;6.40;;
36663;SDS011;53333;51.976;20.144;2023-03-29T00:50:59;17.38;;;7.05;;
36663;SDS011;53333;51.976;20.144;2023-03-29T00:53:41;13.48;;;5.60;;
36663;SDS011;53333;51.976;20.144;2023-03-29T00:56:19;13.45;;;6.53;;
36663;SDS011;53333;51.976;20.144;2023-03-29T00:58:56;12.98;;;6.20;;
36663;SDS011;53333;51.976;20.144;2023-03-29T01:01:35;13.07;;;5.22;;
36663;SDS011;53333;51.976;20.144;2023-03-29T01:04:14;16.90;;;5.43;;
36663;SDS011;53333;51.976;20.144;2023-03-29T01:06:52;11.65;;;5.60;;
36663;SDS011;53333;51.976;20.144;2023-03-29T01:09:28;12.95;;;5.95;;
36663;SDS011;53333;51.976;20.144;2023-03-29T01:12:07;13.27;;;5.43;;
36663;SDS011;53333;51.976;20.144;2023-03-29T01:14:47;11.93;;;5.43;;
36663;SDS011;53333;51.976;20.144;2023-03-29T01:17:24;11.60;;;5.28;;
36663;SDS011;53333;51.976;20.144;2023-03-29T01:19:58;11.65;;;5.22;;
36663;SDS011;53333;51.976;20.144;2023-03-29T01:22:44;11.77;;;5.43;;
36663;SDS011;53333;51.976;20.144;2023-03-29T01:25:37;13.73;;;5.80;;
36663;SDS011;53333;51.976;20.144;2023-03-29T01:28:19;10.32;;;4.95;;
36663;SDS011;53333;51.976;20.144;2023-03-29T01:30:56;11.30;;;5.13;;
36663;SDS011;53333;51.976;20.144;2023-03-29T01:33:36;14.98;;;5.43;;
36663;SDS011;53333;51.976;20.144;2023-03-29T01:36:13;8.75;;;4.72;;
36663;SDS011;53333;51.976;20.144;2023-03-29T01:38:51;11.00;;;5.22;;
36663;SDS011;53333;51.976;20.144;2023-03-29T01:41:33;12.32;;;5.40;;
36663;SDS011;53333;51.976;20.144;2023-03-29T01:44:14;12.25;;;5.35;;
36663;SDS011;53333;51.976;20.144;2023-03-29T01:46:51;8.07;;;4.55;;
36663;SDS011;53333;51.976;20.144;2023-03-29T01:49:28;7.80;;;4.43;;
36663;SDS011;53333;51.976;20.144;2023-03-29T01:52:10;9.88;;;4.90;;
36663;SDS011;53333;51.976;20.144;2023-03-29T01:54:50;10.05;;;4.95;;
36663;SDS011;53333;51.976;20.144;2023-03-29T01:57:27;12.55;;;5.13;;
36663;SDS011;53333;51.976;20.144;2023-03-29T02:00:05;10.25;;;4.85;;
36663;SDS011;53333;51.976;20.144;2023-03-29T02:02:41;10.93;;;5.38;;
36663;SDS011;53333;51.976;20.144;2023-03-29T02:05:18;9.73;;;4.88;;
36663;SDS011;53333;51.976;20.144;2023-03-29T02:07:54;9.32;;;4.72;;
36663;SDS011;53333;51.976;20.144;2023-03-29T02:10:30;13.02;;;5.65;;
36663;SDS011;53333;51.976;20.144;2023-03-29T02:13:06;13.23;;;5.63;;
36663;SDS011;53333;51.976;20.144;2023-03-29T02:15:42;11.40;;;5.43;;
36663;SDS011;53333;51.976;20.144;2023-03-29T02:18:16;14.32;;;5.57;;
36663;SDS011;53333;51.976;20.144;2023-03-29T02:20:51;11.25;;;5.70;;
36663;SDS011;53333;51.976;20.144;2023-03-29T02:23:27;11.18;;;5.43;;
36663;SDS011;53333;51.976;20.144;2023-03-29T02:26:05;13.68;;;6.07;;
36663;SDS011;53333;51.976;20.144;2023-03-29T02:28:39;9.95;;;5.55;;
36663;SDS011;53333;51.976;20.144;2023-03-29T02:31:15;9.07;;;5.38;;
36663;SDS011;53333;51.976;20.144;2023-03-29T02:33:56;14.10;;;5.20;;
36663;SDS011;53333;51.976;20.144;2023-03-29T02:36:35;12.50;;;5.40;;
36663;SDS011;53333;51.976;20.144;2023-03-29T02:39:12;10.23;;;6.15;;
36663;SDS011;53333;51.976;20.144;2023-03-29T02:41:48;12.48;;;5.10;;
36663;SDS011;53333;51.976;20.144;2023-03-29T02:44:23;11.43;;;5.88;;
36663;SDS011;53333;51.976;20.144;2023-03-29T02:47:01;15.85;;;6.10;;
36663;SDS011;53333;51.976;20.144;2023-03-29T02:49:38;12.23;;;4.78;;
36663;SDS011;53333;51.976;20.144;2023-03-29T02:52:13;12.18;;;5.32;;
36663;SDS011;53333;51.976;20.144;2023-03-29T02:54:49;15.30;;;5.97;;
36663;SDS011;53333;51.976;20.144;2023-03-29T02:57:25;11.93;;;5.63;;
36663;SDS011;53333;51.976;20.144;2023-03-29T02:59:59;8.80;;;4.70;;
36663;SDS011;53333;51.976;20.144;2023-03-29T03:02:36;16.02;;;5.82;;
36663;SDS011;53333;51.976;20.144;2023-03-29T03:05:11;10.98;;;5.03;;
36663;SDS011;53333;51.976;20.144;2023-03-29T03:07:44;17.65;;;6.38;;
36663;SDS011;53333;51.976;20.144;2023-03-29T03:10:17;10.63;;;5.25;;
36663;SDS011;53333;51.976;20.144;2023-03-29T03:12:50;11.77;;;5.13;;
36663;SDS011;53333;51.976;20.144;2023-03-29T03:15:24;11.70;;;5.13;;
36663;SDS011;53333;51.976;20.144;2023-03-29T03:17:59;9.98;;;4.65;;
36663;SDS011;53333;51.976;20.144;2023-03-29T03:20:32;9.88;;;5.90;;
36663;SDS011;53333;51.976;20.144;2023-03-29T03:23:05;10.93;;;5.95;;
36663;SDS011;53333;51.976;20.144;2023-03-29T03:25:40;8.00;;;5.15;;
36663;SDS011;53333;51.976;20.144;2023-03-29T03:28:17;10.77;;;4.90;;
36663;SDS011;53333;51.976;20.144;2023-03-29T03:30:50;9.60;;;5.72;;
36663;SDS011;53333;51.976;20.144;2023-03-29T03:33:44;6.85;;;4.32;;
36663;SDS011;53333;51.976;20.144;2023-03-29T03:36:40;12.55;;;5.63;;
36663;SDS011;53333;51.976;20.144;2023-03-29T03:39:15;27.92;;;8.98;;
36663;SDS011;53333;51.976;20.144;2023-03-29T03:41:48;16.58;;;6.60;;
36663;SDS011;53333;51.976;20.144;2023-03-29T03:44:22;16.30;;;7.53;;
36663;SDS011;53333;51.976;20.144;2023-03-29T03:47:12;20.38;;;8.95;;
36663;SDS011;53333;51.976;20.144;2023-03-29T03:49:47;13.70;;;6.78;;
36663;SDS011;53333;51.976;20.144;2023-03-29T03:52:21;13.85;;;5.63;;
36663;SDS011;53333;51.976;20.144;2023-03-29T03:57:43;17.23;;;5.57;;
36663;SDS011;53333;51.976;20.144;2023-03-29T04:00:21;13.98;;;6.53;;
36663;SDS011;53333;51.976;20.144;2023-03-29T04:03:13;15.68;;;6.85;;
36663;SDS011;53333;51.976;20.144;2023-03-29T04:05:49;21.30;;;8.38;;
36663;SDS011;53333;51.976;20.144;2023-03-29T04:08:23;22.15;;;8.60;;
36663;SDS011;53333;51.976;20.144;2023-03-29T04:11:12;29.88;;;9.93;;
36663;SDS011;53333;51.976;20.144;2023-03-29T04:13:46;28.60;;;9.23;;
36663;SDS011;53333;51.976;20.144;2023-03-29T04:16:32;31.85;;;8.95;;
36663;SDS011;53333;51.976;20.144;2023-03-29T04:19:20;24.42;;;8.25;;
36663;SDS011;53333;51.976;20.144;2023-03-29T04:21:55;25.10;;;8.50;;
36663;SDS011;53333;51.976;20.144;2023-03-29T04:24:28;19.80;;;7.32;;
36663;SDS011;53333;51.976;20.144;2023-03-29T04:27:21;21.15;;;7.32;;
36663;SDS011;53333;51.976;20.144;2023-03-29T04:29:54;20.17;;;7.40;;
36663;SDS011;53333;51.976;20.144;2023-03-29T04:32:47;19.15;;;7.65;;
36663;SDS011;53333;51.976;20.144;2023-03-29T04:35:22;15.38;;;6.82;;
36663;SDS011;53333;51.976;20.144;2023-03-29T04:37:56;15.02;;;7.40;;
36663;SDS011;53333;51.976;20.144;2023-03-29T04:40:29;24.20;;;7.50;;
36663;SDS011;53333;51.976;20.144;2023-03-29T04:43:20;16.92;;;7.32;;
36663;SDS011;53333;51.976;20.144;2023-03-29T04:46:09;17.98;;;6.18;;
36663;SDS011;53333;51.976;20.144;2023-03-29T04:49:02;18.98;;;7.25;;
36663;SDS011;53333;51.976;20.144;2023-03-29T04:51:39;16.38;;;6.43;;
36663;SDS011;53333;51.976;20.144;2023-03-29T04:54:15;17.27;;;7.55;;
36663;SDS011;53333;51.976;20.144;2023-03-29T04:57:16;17.88;;;7.05;;
36663;SDS011;53333;51.976;20.144;2023-03-29T05:00:12;16.08;;;6.95;;
36663;SDS011;53333;51.976;20.144;2023-03-29T05:03:05;14.93;;;6.68;;
36663;SDS011;53333;51.976;20.144;2023-03-29T05:05:42;15.85;;;7.07;;
36663;SDS011;53333;51.976;20.144;2023-03-29T05:08:15;15.38;;;6.20;;
36663;SDS011;53333;51.976;20.144;2023-03-29T05:11:09;20.20;;;5.85;;
36663;SDS011;53333;51.976;20.144;2023-03-29T05:13:45;11.10;;;4.90;;
36663;SDS011;53333;51.976;20.144;2023-03-29T05:16:19;19.30;;;6.68;;
36663;SDS011;53333;51.976;20.144;2023-03-29T05:18:52;12.82;;;5.97;;
36663;SDS011;53333;51.976;20.144;2023-03-29T05:21:26;10.48;;;5.50;;
36663;SDS011;53333;51.976;20.144;2023-03-29T05:24:02;11.63;;;5.60;;
36663;SDS011;53333;51.976;20.144;2023-03-29T05:26:57;13.43;;;6.93;;
36663;SDS011;53333;51.976;20.144;2023-03-29T05:29:34;12.90;;;5.47;;
36663;SDS011;53333;51.976;20.144;2023-03-29T05:32:25;12.57;;;6.22;;
36663;SDS011;53333;51.976;20.144;2023-03-29T05:34:59;11.63;;;6.35;;
36663;SDS011;53333;51.976;20.144;2023-03-29T05:37:32;30.90;;;7.65;;
36663;SDS011;53333;51.976;20.144;2023-03-29T05:40:06;16.42;;;7.18;;
36663;SDS011;53333;51.976;20.144;2023-03-29T05:42:58;15.48;;;5.93;;
36663;SDS011;53333;51.976;20.144;2023-03-29T05:45:32;11.70;;;5.57;;
36663;SDS011;53333;51.976;20.144;2023-03-29T05:48:06;10.48;;;5.75;;
36663;SDS011;53333;51.976;20.144;2023-03-29T05:50:39;9.27;;;5.60;;
36663;SDS011;53333;51.976;20.144;2023-03-29T05:53:16;15.25;;;6.43;;
36663;SDS011;53333;51.976;20.144;2023-03-29T05:55:50;12.07;;;4.95;;
36663;SDS011;53333;51.976;20.144;2023-03-29T05:58:28;9.80;;;4.95;;
36663;SDS011;53333;51.976;20.144;2023-03-29T06:01:02;9.20;;;4.53;;
36663;SDS011;53333;51.976;20.144;2023-03-29T06:03:59;10.23;;;4.93;;
36663;SDS011;53333;51.976;20.144;2023-03-29T06:06:42;11.63;;;6.27;;
36663;SDS011;53333;51.976;20.144;2023-03-29T06:09:15;11.32;;;6.03;;
36663;SDS011;53333;51.976;20.144;2023-03-29T06:12:00;12.90;;;6.90;;
36663;SDS011;53333;51.976;20.144;2023-03-29T06:14:44;13.98;;;5.63;;
36663;SDS011;53333;51.976;20.144;2023-03-29T06:17:26;16.05;;;5.30;;
36663;SDS011;53333;51.976;20.144;2023-03-29T06:20:02;16.08;;;5.60;;
36663;SDS011;53333;51.976;20.144;2023-03-29T06:22:39;18.98;;;7.47;;
36663;SDS011;53333;51.976;20.144;2023-03-29T06:25:15;11.65;;;5.13;;
36663;SDS011;53333;51.976;20.144;2023-03-29T06:27:50;11.50;;;5.55;;
36663;SDS011;53333;51.976;20.144;2023-03-29T06:30:26;10.35;;;4.85;;
36663;SDS011;53333;51.976;20.144;2023-03-29T06:33:00;11.05;;;5.50;;
36663;SDS011;53333;51.976;20.144;2023-03-29T06:35:56;20.08;;;6.20;;
36663;SDS011;53333;51.976;20.144;2023-03-29T06:38:32;9.60;;;5.45;;
36663;SDS011;53333;51.976;20.144;2023-03-29T06:41:17;13.35;;;5.55;;
36663;SDS011;53333;51.976;20.144;2023-03-29T06:44:20;9.27;;;5.25;;
36663;SDS011;53333;51.976;20.144;2023-03-29T06:47:03;15.48;;;5.55;;
36663;SDS011;53333;51.976;20.144;2023-03-29T06:49:36;13.20;;;6.03;;
36663;SDS011;53333;51.976;20.144;2023-03-29T06:52:23;13.00;;;5.25;;
36663;SDS011;53333;51.976;20.144;2023-03-29T06:54:56;11.98;;;5.05;;
36663;SDS011;53333;51.976;20.144;2023-03-29T06:57:32;12.23;;;5.80;;
36663;SDS011;53333;51.976;20.144;2023-03-29T07:00:06;13.35;;;6.18;;
36663;SDS011;53333;51.976;20.144;2023-03-29T07:03:24;13.52;;;5.63;;
36663;SDS011;53333;51.976;20.144;2023-03-29T07:05:59;12.27;;;5.85;;
36663;SDS011;53333;51.976;20.144;2023-03-29T07:08:36;12.98;;;5.45;;
36663;SDS011;53333;51.976;20.144;2023-03-29T07:11:21;12.32;;;5.50;;
36663;SDS011;53333;51.976;20.144;2023-03-29T07:14:00;10.57;;;5.13;;
36663;SDS011;53333;51.976;20.144;2023-03-29T07:16:37;11.45;;;5.95;;
36663;SDS011;53333;51.976;20.144;2023-03-29T07:19:24;9.85;;;5.13;;
36663;SDS011;53333;51.976;20.144;2023-03-29T07:21:59;9.00;;;4.88;;
36663;SDS011;53333;51.976;20.144;2023-03-29T07:24:45;11.95;;;5.75;;
36663;SDS011;53333;51.976;20.144;2023-03-29T07:27:19;10.38;;;5.80;;
36663;SDS011;53333;51.976;20.144;2023-03-29T07:29:53;9.15;;;4.45;;
36663;SDS011;53333;51.976;20.144;2023-03-29T07:32:29;9.13;;;4.18;;
36663;SDS011;53333;51.976;20.144;2023-03-29T07:35:26;8.68;;;4.18;;
36663;SDS011;53333;51.976;20.144;2023-03-29T07:38:01;8.70;;;4.88;;
36663;SDS011;53333;51.976;20.144;2023-03-29T07:40:35;11.98;;;4.10;;
36663;SDS011;53333;51.976;20.144;2023-03-29T07:43:27;6.00;;;3.45;;
36663;SDS011;53333;51.976;20.144;2023-03-29T07:46:00;7.13;;;3.75;;
36663;SDS011;53333;51.976;20.144;2023-03-29T07:48:37;6.30;;;3.40;;
36663;SDS011;53333;51.976;20.144;2023-03-29T07:51:14;7.30;;;3.58;;
36663;SDS011;53333;51.976;20.144;2023-03-29T07:54:02;9.95;;;4.25;;
36663;SDS011;53333;51.976;20.144;2023-03-29T07:56:38;9.82;;;3.50;;
36663;SDS011;53333;51.976;20.144;2023-03-29T07:59:22;6.82;;;3.78;;
36663;SDS011;53333;51.976;20.144;2023-03-29T08:02:05;10.02;;;4.25;;
36663;SDS011;53333;51.976;20.144;2023-03-29T08:04:42;9.32;;;3.78;;
36663;SDS011;53333;51.976;20.144;2023-03-29T08:07:58;8.52;;;3.70;;
36663;SDS011;53333;51.976;20.144;2023-03-29T08:10:55;8.65;;;3.60;;
36663;SDS011;53333;51.976;20.144;2023-03-29T08:13:39;7.10;;;4.10;;
36663;SDS011;53333;51.976;20.144;2023-03-29T08:16:30;10.85;;;4.13;;
36663;SDS011;53333;51.976;20.144;2023-03-29T08:19:10;6.40;;;3.45;;
36663;SDS011;53333;51.976;20.144;2023-03-29T08:22:07;5.15;;;3.75;;
36663;SDS011;53333;51.976;20.144;2023-03-29T08:25:01;6.60;;;4.30;;
36663;SDS011;53333;51.976;20.144;2023-03-29T08:27:39;6.00;;;3.92;;
36663;SDS011;53333;51.976;20.144;2023-03-29T08:30:14;6.28;;;4.00;;
36663;SDS011;53333;51.976;20.144;2023-03-29T08:32:47;8.75;;;4.35;;
36663;SDS011;53333;51.976;20.144;2023-03-29T08:35:25;6.68;;;3.30;;
36663;SDS011;53333;51.976;20.144;2023-03-29T08:38:18;6.55;;;3.60;;
36663;SDS011;53333;51.976;20.144;2023-03-29T08:40:55;5.93;;;3.90;;
36663;SDS011;53333;51.976;20.144;2023-03-29T08:46:54;9.52;;;3.83;;
36663;SDS011;53333;51.976;20.144;2023-03-29T08:49:48;7.80;;;4.07;;
36663;SDS011;53333;51.976;20.144;2023-03-29T08:52:43;6.53;;;4.55;;
36663;SDS011;53333;51.976;20.144;2023-03-29T08:55:44;7.53;;;4.25;;
36663;SDS011;53333;51.976;20.144;2023-03-29T08:58:52;6.93;;;3.65;;
36663;SDS011;53333;51.976;20.144;2023-03-29T09:01:29;7.60;;;3.53;;
36663;SDS011;53333;51.976;20.144;2023-03-29T09:04:06;7.55;;;4.45;;
36663;SDS011;53333;51.976;20.144;2023-03-29T09:07:08;6.45;;;3.65;;
36663;SDS011;53333;51.976;20.144;2023-03-29T09:09:47;4.95;;;3.10;;
36663;SDS011;53333;51.976;20.144;2023-03-29T09:12:35;6.88;;;3.40;;
36663;SDS011;53333;51.976;20.144;2023-03-29T09:15:23;6.28;;;3.17;;
36663;SDS011;53333;51.976;20.144;2023-03-29T09:18:12;7.05;;;3.78;;
36663;SDS011;53333;51.976;20.144;2023-03-29T09:20:54;5.57;;;3.15;;
36663;SDS011;53333;51.976;20.144;2023-03-29T09:23:47;5.38;;;3.50;;
36663;SDS011;53333;51.976;20.144;2023-03-29T09:26:57;6.32;;;2.75;;
36663;SDS011;53333;51.976;20.144;2023-03-29T09:29:49;5.53;;;2.60;;
36663;SDS011;53333;51.976;20.144;2023-03-29T09:32:51;4.63;;;2.85;;
36663;SDS011;53333;51.976;20.144;2023-03-29T09:35:33;4.13;;;2.70;;
36663;SDS011;53333;51.976;20.144;2023-03-29T09:38:10;3.20;;;2.58;;
36663;SDS011;53333;51.976;20.144;2023-03-29T09:40:47;6.43;;;3.50;;
36663;SDS011;53333;51.976;20.144;2023-03-29T09:43:28;4.00;;;2.50;;
36663;SDS011;53333;51.976;20.144;2023-03-29T09:46:09;5.07;;;2.85;;
36663;SDS011;53333;51.976;20.144;2023-03-29T09:48:50;6.30;;;3.50;;
36663;SDS011;53333;51.976;20.144;2023-03-29T09:51:25;7.38;;;3.05;;
36663;SDS011;53333;51.976;20.144;2023-03-29T09:54:01;5.32;;;2.65;;
36663;SDS011;53333;51.976;20.144;2023-03-29T09:56:57;6.43;;;3.83;;
36663;SDS011;53333;51.976;20.144;2023-03-29T09:59:30;7.38;;;3.35;;
36663;SDS011;53333;51.976;20.144;2023-03-29T10:02:04;6.82;;;2.88;;
36663;SDS011;53333;51.976;20.144;2023-03-29T10:04:40;6.93;;;3.50;;
36663;SDS011;53333;51.976;20.144;2023-03-29T10:07:17;4.22;;;3.45;;
36663;SDS011;53333;51.976;20.144;2023-03-29T10:09:59;4.28;;;3.03;;
36663;SDS011;53333;51.976;20.144;2023-03-29T10:12:33;6.75;;;3.63;;
36663;SDS011;53333;51.976;20.144;2023-03-29T10:15:08;4.28;;;3.35;;
36663;SDS011;53333;51.976;20.144;2023-03-29T10:18:00;3.70;;;2.88;;
36663;SDS011;53333;51.976;20.144;2023-03-29T10:20:39;4.97;;;3.20;;
36663;SDS011;53333;51.976;20.144;2023-03-29T10:23:15;6.55;;;3.17;;
36663;SDS011;53333;51.976;20.144;2023-03-29T10:25:49;4.90;;;3.28;;
36663;SDS011;53333;51.976;20.144;2023-03-29T10:28:23;4.40;;;2.92;;
36663;SDS011;53333;51.976;20.144;2023-03-29T10:31:01;3.70;;;2.75;;
36663;SDS011;53333;51.976;20.144;2023-03-29T10:33:38;4.65;;;2.97;;
36663;SDS011;53333;51.976;20.144;2023-03-29T10:36:13;5.78;;;2.75;;
36663;SDS011;53333;51.976;20.144;2023-03-29T10:38:46;3.47;;;2.40;;
36663;SDS011;53333;51.976;20.144;2023-03-29T10:41:20;2.53;;;2.17;;
36663;SDS011;53333;51.976;20.144;2023-03-29T10:43:54;5.53;;;3.00;;
36663;SDS011;53333;51.976;20.144;2023-03-29T10:46:29;4.38;;;2.90;;
36663;SDS011;53333;51.976;20.144;2023-03-29T10:49:04;3.80;;;2.85;;
36663;SDS011;53333;51.976;20.144;2023-03-29T10:51:50;3.90;;;2.70;;
36663;SDS011;53333;51.976;20.144;2023-03-29T10:54:27;4.55;;;3.08;;
36663;SDS011;53333;51.976;20.144;2023-03-29T10:57:00;3.95;;;2.63;;
36663;SDS011;53333;51.976;20.144;2023-03-29T10:59:44;3.30;;;2.53;;
36663;SDS011;53333;51.976;20.144;2023-03-29T11:02:31;4.72;;;2.67;;
36663;SDS011;53333;51.976;20.144;2023-03-29T11:05:23;5.72;;;3.60;;
36663;SDS011;53333;51.976;20.144;2023-03-29T11:08:07;4.35;;;2.97;;
36663;SDS011;53333;51.976;20.144;2023-03-29T11:10:56;6.88;;;4.18;;
36663;SDS011;53333;51.976;20.144;2023-03-29T11:13:41;7.05;;;2.80;;
36663;SDS011;53333;51.976;20.144;2023-03-29T11:16:24;4.57;;;2.73;;
36663;SDS011;53333;51.976;20.144;2023-03-29T11:19:05;5.68;;;3.25;;
36663;SDS011;53333;51.976;20.144;2023-03-29T11:21:49;4.72;;;3.00;;
36663;SDS011;53333;51.976;20.144;2023-03-29T11:24:36;4.85;;;3.08;;
36663;SDS011;53333;51.976;20.144;2023-03-29T11:27:26;3.28;;;2.55;;
36663;SDS011;53333;51.976;20.144;2023-03-29T11:30:07;4.18;;;2.97;;
36663;SDS011;53333;51.976;20.144;2023-03-29T11:32:54;5.30;;;2.63;;
36663;SDS011;53333;51.976;20.144;2023-03-29T11:35:40;3.08;;;2.30;;
36663;SDS011;53333;51.976;20.144;2023-03-29T11:38:22;3.88;;;2.80;;
36663;SDS011;53333;51.976;20.144;2023-03-29T11:41:03;4.45;;;2.83;;
36663;SDS011;53333;51.976;20.144;2023-03-29T11:43:44;4.50;;;2.58;;
36663;SDS011;53333;51.976;20.144;2023-03-29T11:46:22;3.65;;;2.80;;
36663;SDS011;53333;51.976;20.144;2023-03-29T11:49:00;4.05;;;2.80;;
36663;SDS011;53333;51.976;20.144;2023-03-29T11:51:37;4.13;;;2.20;;
36663;SDS011;53333;51.976;20.144;2023-03-29T11:54:15;3.60;;;2.65;;
36663;SDS011;53333;51.976;20.144;2023-03-29T11:56:54;5.50;;;2.67;;
36663;SDS011;53333;51.976;20.144;2023-03-29T11:59:34;2.58;;;2.28;;
36663;SDS011;53333;51.976;20.144;2023-03-29T12:02:15;4.20;;;2.58;;
36663;SDS011;53333;51.976;20.144;2023-03-29T12:04:54;3.20;;;2.90;;
36663;SDS011;53333;51.976;20.144;2023-03-29T12:07:31;4.90;;;2.83;;
36663;SDS011;53333;51.976;20.144;2023-03-29T12:10:12;6.22;;;3.45;;
36663;SDS011;53333;51.976;20.144;2023-03-29T12:12:51;4.43;;;3.03;;
36663;SDS011;53333;51.976;20.144;2023-03-29T12:15:31;3.47;;;2.85;;
36663;SDS011;53333;51.976;20.144;2023-03-29T12:18:13;3.65;;;2.47;;
36663;SDS011;53333;51.976;20.144;2023-03-29T12:20:52;4.97;;;2.53;;
36663;SDS011;53333;51.976;20.144;2023-03-29T12:23:31;3.38;;;2.20;;
36663;SDS011;53333;51.976;20.144;2023-03-29T12:26:05;3.67;;;2.15;;
36663;SDS011;53333;51.976;20.144;2023-03-29T12:29:21;4.18;;;2.25;;
36663;SDS011;53333;51.976;20.144;2023-03-29T12:32:15;6.03;;;2.30;;
36663;SDS011;53333;51.976;20.144;2023-03-29T12:35:34;3.92;;;2.53;;
36663;SDS011;53333;51.976;20.144;2023-03-29T12:38:37;4.05;;;2.95;;
36663;SDS011;53333;51.976;20.144;2023-03-29T12:41:48;5.18;;;2.83;;
36663;SDS011;53333;51.976;20.144;2023-03-29T12:44:44;6.85;;;3.08;;
36663;SDS011;53333;51.976;20.144;2023-03-29T12:47:30;3.53;;;2.75;;
36663;SDS011;53333;51.976;20.144;2023-03-29T12:53:06;6.45;;;3.03;;
36663;SDS011;53333;51.976;20.144;2023-03-29T12:55:53;5.35;;;3.15;;
36663;SDS011;53333;51.976;20.144;2023-03-29T12:58:40;4.40;;;2.92;;
36663;SDS011;53333;51.976;20.144;2023-03-29T13:01:24;4.13;;;2.75;;
36663;SDS011;53333;51.976;20.144;2023-03-29T13:04:13;9.38;;;4.80;;
36663;SDS011;53333;51.976;20.144;2023-03-29T13:06:56;9.68;;;3.47;;
36663;SDS011;53333;51.976;20.144;2023-03-29T13:09:45;4.40;;;2.58;;
36663;SDS011;53333;51.976;20.144;2023-03-29T13:12:21;5.13;;;3.03;;
36663;SDS011;53333;51.976;20.144;2023-03-29T13:14:58;4.80;;;2.65;;
36663;SDS011;53333;51.976;20.144;2023-03-29T13:17:37;5.40;;;3.42;;
36663;SDS011;53333;51.976;20.144;2023-03-29T13:20:25;8.13;;;3.50;;
36663;SDS011;53333;51.976;20.144;2023-03-29T13:23:22;7.78;;;3.30;;
36663;SDS011;53333;51.976;20.144;2023-03-29T13:26:18;5.80;;;2.97;;
36663;SDS011;53333;51.976;20.144;2023-03-29T13:29:08;5.97;;;3.15;;
36663;SDS011;53333;51.976;20.144;2023-03-29T13:32:05;8.05;;;5.07;;
36663;SDS011;53333;51.976;20.144;2023-03-29T13:35:02;7.93;;;4.50;;
36663;SDS011;53333;51.976;20.144;2023-03-29T13:37:47;4.70;;;3.25;;
36663;SDS011;53333;51.976;20.144;2023-03-29T13:40:41;4.90;;;3.15;;
36663;SDS011;53333;51.976;20.144;2023-03-29T13:43:18;5.20;;;3.35;;
36663;SDS011;53333;51.976;20.144;2023-03-29T13:46:04;6.68;;;3.47;;
36663;SDS011;53333;51.976;20.144;2023-03-29T13:48:56;5.70;;;3.08;;
36663;SDS011;53333;51.976;20.144;2023-03-29T13:51:39;5.85;;;3.67;;
36663;SDS011;53333;51.976;20.144;2023-03-29T13:54:19;13.35;;;5.60;;
36663;SDS011;53333;51.976;20.144;2023-03-29T13:57:00;4.00;;;2.97;;
36663;SDS011;53333;51.976;20.144;2023-03-29T13:59:48;5.88;;;3.45;;
36663;SDS011;53333;51.976;20.144;2023-03-29T14:02:35;7.78;;;4.88;;
36663;SDS011;53333;51.976;20.144;2023-03-29T14:05:12;5.47;;;3.80;;
36663;SDS011;53333;51.976;20.144;2023-03-29T14:07:51;9.07;;;3.63;;
36663;SDS011;53333;51.976;20.144;2023-03-29T14:10:30;9.30;;;4.97;;
36663;SDS011;53333;51.976;20.144;2023-03-29T14:13:09;8.68;;;4.32;;
36663;SDS011;53333;51.976;20.144;2023-03-29T14:15:48;6.20;;;3.88;;
36663;SDS011;53333;51.976;20.144;2023-03-29T14:18:26;6.15;;;3.47;;
36663;SDS011;53333;51.976;20.144;2023-03-29T14:21:04;6.85;;;3.70;;
36663;SDS011;53333;51.976;20.144;2023-03-29T14:23:44;5.47;;;3.42;;
36663;SDS011;53333;51.976;20.144;2023-03-29T14:26:19;4.55;;;3.20;;
36663;SDS011;53333;51.976;20.144;2023-03-29T14:28:54;7.15;;;3.47;;
36663;SDS011;53333;51.976;20.144;2023-03-29T14:31:29;7.65;;;3.72;;
36663;SDS011;53333;51.976;20.144;2023-03-29T14:34:05;9.93;;;3.80;;
36663;SDS011;53333;51.976;20.144;2023-03-29T14:36:43;5.88;;;3.50;;
36663;SDS011;53333;51.976;20.144;2023-03-29T14:39:18;7.68;;;4.50;;
36663;SDS011;53333;51.976;20.144;2023-03-29T14:41:54;6.30;;;3.83;;
36663;SDS011;53333;51.976;20.144;2023-03-29T14:44:28;6.72;;;4.00;;
36663;SDS011;53333;51.976;20.144;2023-03-29T14:47:03;5.72;;;3.42;;
36663;SDS011;53333;51.976;20.144;2023-03-29T14:49:36;7.65;;;4.03;;
36663;SDS011;53333;51.976;20.144;2023-03-29T14:52:10;7.00;;;3.75;;
36663;SDS011;53333;51.976;20.144;2023-03-29T14:54:46;5.95;;;3.05;;
36663;SDS011;53333;51.976;20.144;2023-03-29T14:57:23;8.15;;;3.55;;
36663;SDS011;53333;51.976;20.144;2023-03-29T14:59:58;8.55;;;3.67;;
36663;SDS011;53333;51.976;20.144;2023-03-29T15:02:32;6.65;;;3.15;;
36663;SDS011;53333;51.976;20.144;2023-03-29T15:05:17;5.63;;;3.30;;
36663;SDS011;53333;51.976;20.144;2023-03-29T15:07:56;6.18;;;3.40;;
36663;SDS011;53333;51.976;20.144;2023-03-29T15:10:31;6.15;;;3.10;;
36663;SDS011;53333;51.976;20.144;2023-03-29T15:13:06;6.50;;;3.80;;
36663;SDS011;53333;51.976;20.144;2023-03-29T15:15:40;5.65;;;3.30;;
36663;SDS011;53333;51.976;20.144;2023-03-29T15:18:15;5.78;;;3.80;;
36663;SDS011;53333;51.976;20.144;2023-03-29T15:20:52;6.75;;;3.65;;
36663;SDS011;53333;51.976;20.144;2023-03-29T15:23:32;6.78;;;3.55;;
36663;SDS011;53333;51.976;20.144;2023-03-29T15:26:11;6.53;;;3.20;;
36663;SDS011;53333;51.976;20.144;2023-03-29T15:28:47;6.32;;;3.70;;
36663;SDS011;53333;51.976;20.144;2023-03-29T15:31:31;7.40;;;3.40;;
36663;SDS011;53333;51.976;20.144;2023-03-29T15:34:07;4.93;;;3.72;;
36663;SDS011;53333;51.976;20.144;2023-03-29T15:36:43;6.10;;;3.45;;
36663;SDS011;53333;51.976;20.144;2023-03-29T15:39:17;11.52;;;4.45;;
36663;SDS011;53333;51.976;20.144;2023-03-29T15:41:53;7.38;;;3.47;;
36663;SDS011;53333;51.976;20.144;2023-03-29T15:44:27;6.13;;;3.63;;
36663;SDS011;53333;51.976;20.144;2023-03-29T15:47:07;7.40;;;3.55;;
36663;SDS011;53333;51.976;20.144;2023-03-29T15:49:41;6.35;;;3.50;;
36663;SDS011;53333;51.976;20.144;2023-03-29T15:52:18;5.35;;;3.28;;
36663;SDS011;53333;51.976;20.144;2023-03-29T15:54:51;8.05;;;3.03;;
36663;SDS011;53333;51.976;20.144;2023-03-29T15:57:25;5.97;;;3.90;;